createdAt,value
2018-07-13T00:02:08.503Z,95272.22
2018-07-13T00:05:12.996Z,95269.55
2018-07-13T00:08:17.262Z,95270.38
2018-07-13T00:11:21.544Z,95272.30
2018-07-13T00:14:26.843Z,95273.08
2018-07-13T00:17:31.213Z,95264.73
2018-07-13T00:20:35.494Z,95268.02
2018-07-13T00:23:39.933Z,95271.43
2018-07-13T00:26:44.438Z,95272.81
2018-07-13T00:29:48.757Z,95270.36
2018-07-13T00:32:53.157Z,95268.85
2018-07-13T00:35:57.456Z,95264.74
2018-07-13T00:39:01.859Z,95269.13
2018-07-13T00:42:07.794Z,95267.91
2018-07-13T00:45:12.081Z,95269.68
2018-07-13T00:48:16.861Z,95278.63
2018-07-13T00:51:21.177Z,95269.08
2018-07-13T00:54:25.554Z,95269.68
2018-07-13T00:57:29.866Z,95276.59
2018-07-13T01:00:34.172Z,95282.52
2018-07-13T01:03:38.477Z,95279.85
2018-07-13T01:06:43.984Z,95280.52
2018-07-13T01:09:49.210Z,95278.00
2018-07-13T01:12:53.511Z,95277.22
2018-07-13T01:15:57.960Z,95279.00
2018-07-13T01:19:02.548Z,95279.62
2018-07-13T01:22:06.861Z,95271.88
2018-07-13T01:25:11.182Z,95277.88
2018-07-13T01:28:16.187Z,95273.80
2018-07-13T01:31:20.507Z,95277.05
2018-07-13T01:34:25.131Z,95273.83
2018-07-13T01:37:29.454Z,95276.30
2018-07-13T01:40:33.738Z,95275.30
2018-07-13T01:43:38.638Z,95276.23
2018-07-13T01:46:42.890Z,95275.70
2018-07-13T01:49:47.289Z,95275.59
2018-07-13T01:52:51.716Z,95274.71
2018-07-13T01:56:07.009Z,95266.71
2018-07-13T01:59:11.385Z,95275.59
2018-07-13T02:02:16.688Z,95266.38
2018-07-13T02:05:21.005Z,95273.63
2018-07-13T02:08:25.329Z,95277.05
2018-07-13T02:11:30.223Z,95273.06
2018-07-13T02:14:34.554Z,95280.84
2018-07-13T02:17:38.929Z,95272.63
2018-07-13T02:20:44.464Z,95275.08
2018-07-13T02:23:48.814Z,95275.96
2018-07-13T02:26:53.266Z,95272.65
2018-07-13T02:29:57.577Z,95274.77
2018-07-13T02:33:01.960Z,95277.83
2018-07-13T02:36:06.294Z,95277.94
2018-07-13T02:39:11.638Z,95277.53
2018-07-13T02:42:15.888Z,95280.73
2018-07-13T02:45:21.822Z,95282.30
2018-07-13T02:48:26.225Z,95281.94
2018-07-13T02:51:30.621Z,95278.05
2018-07-13T02:54:35.006Z,95286.53
2018-07-13T02:57:39.380Z,95284.65
2018-07-13T03:00:44.056Z,95288.59
2018-07-13T03:03:48.334Z,95295.38
2018-07-13T03:06:52.713Z,95293.60
2018-07-13T03:09:57.024Z,95296.73
2018-07-13T03:13:02.413Z,95298.16
2018-07-13T03:16:07.152Z,95299.83
2018-07-13T03:19:12.062Z,95302.49
2018-07-13T03:22:17.572Z,95310.71
2018-07-13T03:25:21.868Z,95311.82
2018-07-13T03:28:26.174Z,95314.28
2018-07-13T03:31:31.792Z,95320.81
2018-07-13T03:34:36.143Z,95314.16
2018-07-13T03:37:41.101Z,95315.80
2018-07-13T03:40:45.442Z,95315.25
2018-07-13T03:43:49.841Z,95315.61
2018-07-13T03:46:55.081Z,95320.03
2018-07-13T03:49:59.962Z,95321.91
2018-07-13T03:53:04.307Z,95323.93
2018-07-13T03:56:08.720Z,95319.38
2018-07-13T03:59:13.827Z,95323.93
2018-07-13T04:02:18.217Z,95332.38
2018-07-13T04:05:22.717Z,95338.03
2018-07-13T04:08:28.158Z,95340.37
2018-07-13T04:11:32.453Z,95338.58
2018-07-13T04:14:37.859Z,95337.70
2018-07-13T04:17:42.230Z,95335.48
2018-07-13T04:20:46.523Z,95330.30
2018-07-13T04:23:51.047Z,95336.63
2018-07-13T04:26:56.882Z,95330.05
2018-07-13T04:30:22.353Z,95328.45
2018-07-13T04:33:26.778Z,95338.84
2018-07-13T04:36:31.049Z,95341.98
2018-07-13T04:39:36.027Z,95336.05
2018-07-13T04:42:40.305Z,95331.25
2018-07-13T04:45:44.690Z,95336.63
2018-07-13T04:48:49.099Z,95336.45
2018-07-13T04:51:53.617Z,95334.67
2018-07-13T04:54:58.038Z,95340.27
2018-07-13T04:58:02.368Z,95335.55
2018-07-13T05:01:06.694Z,95335.95
2018-07-13T05:04:11.427Z,95340.19
2018-07-13T05:07:15.461Z,95344.49
2018-07-13T05:10:19.973Z,95346.05
2018-07-13T05:13:25.049Z,95341.17
2018-07-13T05:16:29.345Z,95344.33
2018-07-13T05:19:33.682Z,95344.37
2018-07-13T05:22:38.009Z,95338.64
2018-07-13T05:25:42.392Z,95341.03
2018-07-13T05:28:48.166Z,95348.45
2018-07-13T05:31:52.487Z,95348.80
2018-07-13T05:34:57.357Z,95351.13
2018-07-13T05:38:01.860Z,95351.00
2018-07-13T05:41:06.878Z,95349.47
2018-07-13T05:44:11.195Z,95354.27
2018-07-13T05:47:15.550Z,95353.35
2018-07-13T05:50:19.931Z,95356.73
2018-07-13T05:53:25.409Z,95354.78
2018-07-13T05:56:29.714Z,95354.49
2018-07-13T05:59:34.016Z,95351.22
2018-07-13T06:02:38.292Z,95357.52
2018-07-13T06:05:42.677Z,95368.86
2018-07-13T06:08:47.319Z,95369.20
2018-07-13T06:11:51.921Z,95365.70
2018-07-13T06:14:56.774Z,95366.16
2018-07-13T06:18:01.327Z,95364.10
2018-07-13T06:21:05.649Z,95365.94
2018-07-13T06:24:10.102Z,95369.31
2018-07-13T06:27:14.426Z,95368.69
2018-07-13T06:30:18.820Z,95371.10
2018-07-13T06:33:23.693Z,95373.64
2018-07-13T06:36:28.577Z,95374.06
2018-07-13T06:39:33.487Z,95366.73
2018-07-13T06:42:37.809Z,95366.41
2018-07-13T06:45:42.223Z,95363.75
2018-07-13T06:48:46.735Z,95368.94
2018-07-13T06:51:52.091Z,95373.84
2018-07-13T06:54:56.378Z,95373.75
2018-07-13T06:58:18.649Z,95375.53
2018-07-13T07:01:24.193Z,95376.46
2018-07-13T07:04:38.417Z,95382.55
2018-07-13T07:07:43.801Z,95385.03
2018-07-13T07:10:48.050Z,95381.14
2018-07-13T07:13:52.941Z,95378.28
2018-07-13T07:16:57.392Z,95385.37
2018-07-13T07:20:02.356Z,95384.09
2018-07-13T07:23:06.825Z,95379.48
2018-07-13T07:26:12.102Z,95374.48
2018-07-13T07:29:16.352Z,95372.84
2018-07-13T07:32:20.791Z,95380.98
2018-07-13T07:35:25.150Z,95383.59
2018-07-13T07:38:29.935Z,95381.19
2018-07-13T07:41:34.185Z,95376.87
2018-07-13T07:44:38.495Z,95367.13
2018-07-13T07:47:42.838Z,95369.03
2018-07-13T07:50:47.585Z,95370.75
2018-07-13T07:53:51.998Z,95368.53
2018-07-13T07:56:56.536Z,95363.84
2018-07-13T08:00:00.796Z,95370.52
2018-07-13T08:03:05.506Z,95366.27
2018-07-13T08:06:09.846Z,95357.15
2018-07-13T08:09:14.699Z,95355.27
2018-07-13T08:12:18.994Z,95361.69
2018-07-13T08:15:23.269Z,95365.30
2018-07-13T08:18:27.600Z,95357.73
2018-07-13T08:21:31.881Z,95360.15
2018-07-13T08:24:36.357Z,95363.16
2018-07-13T08:27:45.849Z,95366.10
2018-07-13T08:30:53.717Z,95363.39
2018-07-13T08:33:58.081Z,95368.02
2018-07-13T08:37:02.389Z,95358.59
2018-07-13T08:40:06.694Z,95360.89
2018-07-13T08:43:11.963Z,95357.36
2018-07-13T08:46:17.240Z,95360.12
2018-07-13T08:49:21.534Z,95358.16
2018-07-13T08:52:26.126Z,95361.44
2018-07-13T08:55:30.829Z,95370.75
2018-07-13T08:58:35.169Z,95369.43
2018-07-13T09:01:39.559Z,95361.45
2018-07-13T09:04:43.832Z,95359.60
2018-07-13T09:07:48.130Z,95359.36
2018-07-13T09:10:52.651Z,95361.29
2018-07-13T09:13:56.991Z,95359.90
2018-07-13T09:17:01.346Z,95360.64
2018-07-13T09:20:07.525Z,95366.52
2018-07-13T09:23:11.801Z,95363.62
2018-07-13T09:26:16.819Z,95365.95
2018-07-13T09:29:21.212Z,95373.69
2018-07-13T09:32:25.558Z,95357.86
2018-07-13T09:35:30.689Z,95357.55
2018-07-13T09:38:35.101Z,95361.56
2018-07-13T09:41:39.402Z,95362.30
2018-07-13T09:44:43.927Z,95361.95
2018-07-13T09:47:48.296Z,95367.45
2018-07-13T09:50:53.386Z,95369.03
2018-07-13T09:53:58.029Z,95363.39
2018-07-13T09:57:02.098Z,95362.83
2018-07-13T10:00:06.513Z,95366.08
2018-07-13T10:03:10.795Z,95361.78
2018-07-13T10:06:17.074Z,95364.96
2018-07-13T10:09:21.374Z,95357.60
2018-07-13T10:12:25.700Z,95366.28
2018-07-13T10:15:30.181Z,95361.94
2018-07-13T10:18:34.485Z,95361.66
2018-07-13T10:21:41.881Z,95357.11
2018-07-13T10:24:47.228Z,95355.59
2018-07-13T10:27:51.714Z,95352.16
2018-07-13T10:30:56.822Z,95353.24
2018-07-13T10:34:01.438Z,95355.92
2018-07-13T10:37:06.266Z,95350.66
2018-07-13T10:40:11.813Z,95352.61
2018-07-13T10:43:16.753Z,95350.92
2018-07-13T10:46:21.930Z,95347.85
2018-07-13T10:49:26.359Z,95339.77
2018-07-13T10:52:30.765Z,95351.27
2018-07-13T10:55:35.326Z,95351.58
2018-07-13T10:58:39.702Z,95345.92
2018-07-13T11:01:44.078Z,95348.95
2018-07-13T11:04:48.604Z,95343.63
2018-07-13T11:07:53.181Z,95344.13
2018-07-13T11:10:57.449Z,95333.03
2018-07-13T11:14:04.405Z,95341.06
2018-07-13T11:17:08.628Z,95332.73
2018-07-13T11:20:13.048Z,95330.98
2018-07-13T11:23:18.215Z,95329.16
2018-07-13T11:26:22.522Z,95320.20
2018-07-13T11:29:26.800Z,95324.49
2018-07-13T11:32:31.344Z,95324.81
2018-07-13T11:35:35.691Z,95316.13
2018-07-13T11:38:40.201Z,95313.73
2018-07-13T11:41:44.503Z,95319.80
2018-07-13T11:44:48.786Z,95321.31
2018-07-13T11:47:53.301Z,95320.89
2018-07-13T11:50:57.874Z,95315.58
2018-07-13T11:54:02.367Z,95305.49
2018-07-13T11:57:06.825Z,95310.03
2018-07-13T12:00:11.113Z,95306.36
2018-07-13T12:03:18.154Z,95308.30
2018-07-13T12:06:22.454Z,95302.75
2018-07-13T12:09:26.854Z,95303.08
2018-07-13T12:12:32.388Z,95296.85
2018-07-13T12:15:36.582Z,95287.82
2018-07-13T12:18:40.868Z,95295.97
2018-07-13T12:21:45.333Z,95288.67
2018-07-13T12:24:49.594Z,95288.53
2018-07-13T12:27:53.872Z,95285.42
2018-07-13T12:30:58.778Z,95288.59
2018-07-13T12:34:03.065Z,95291.51
2018-07-13T12:37:08.241Z,95290.13
2018-07-13T12:40:12.493Z,95284.86
2018-07-13T12:43:16.766Z,95281.54
2018-07-13T12:46:21.065Z,95281.24
2018-07-13T12:49:25.341Z,95277.91
2018-07-13T12:52:29.851Z,95277.55
2018-07-13T12:55:34.394Z,95274.66
2018-07-13T12:58:38.821Z,95273.94
2018-07-13T13:01:43.081Z,95275.33
2018-07-13T13:04:48.465Z,95276.88
2018-07-13T13:07:52.793Z,95270.03
2018-07-13T13:10:57.098Z,95276.84
2018-07-13T13:14:01.571Z,95271.88
2018-07-13T13:17:06.896Z,95278.50
2018-07-13T13:20:11.241Z,95264.70
2018-07-13T13:23:15.563Z,95264.92
2018-07-13T13:26:19.852Z,95261.72
2018-07-13T13:29:24.206Z,95267.55
2018-07-13T13:32:28.605Z,95264.95
2018-07-13T13:35:35.295Z,95272.53
2018-07-13T13:38:39.752Z,95265.13
2018-07-13T13:41:44.129Z,95275.13
2018-07-13T13:44:49.686Z,95274.82
2018-07-13T13:47:53.974Z,95266.18
2018-07-13T13:50:59.338Z,95266.69
2018-07-13T13:54:04.500Z,95262.14
2018-07-13T13:57:08.816Z,95255.80
2018-07-13T14:00:13.216Z,95265.04
2018-07-13T14:03:18.060Z,95265.57
2018-07-13T14:06:22.436Z,95262.80
2018-07-13T14:09:27.650Z,95259.28
2018-07-13T14:12:32.015Z,95266.64
2018-07-13T14:15:36.363Z,95300.63
2018-07-13T14:18:40.718Z,95252.91
2018-07-13T14:21:45.745Z,95246.72
2018-07-13T14:24:50.602Z,95243.84
2018-07-13T14:27:54.901Z,95239.83
2018-07-13T14:30:59.680Z,95234.44
2018-07-13T14:34:04.263Z,95237.52
2018-07-13T14:37:08.868Z,95230.30
2018-07-13T14:40:13.307Z,95224.28
2018-07-13T14:43:18.763Z,95220.32
2018-07-13T14:46:23.674Z,95225.59
2018-07-13T14:49:28.099Z,95225.44
2018-07-13T14:52:32.478Z,95223.13
2018-07-13T14:55:36.816Z,95226.44
2018-07-13T14:58:41.121Z,95230.33
2018-07-13T15:01:45.522Z,95222.36
2018-07-13T15:04:50.791Z,95221.25
2018-07-13T15:07:55.304Z,95216.56
2018-07-13T15:10:59.808Z,95215.73
2018-07-13T15:14:04.406Z,95220.14
2018-07-13T15:17:08.780Z,95216.03
2018-07-13T15:20:13.136Z,95217.92
2018-07-13T15:23:19.281Z,95215.44
2018-07-13T15:26:23.602Z,95222.45
2018-07-13T15:29:27.867Z,95217.66
2018-07-13T15:32:32.931Z,95211.44
2018-07-13T15:35:37.249Z,95212.80
2018-07-13T15:38:41.761Z,95208.47
2018-07-13T15:41:47.329Z,95209.02
2018-07-13T15:44:51.613Z,95211.83
2018-07-13T15:47:56.158Z,95218.84
2018-07-13T15:51:00.603Z,95215.96
2018-07-13T15:54:05.768Z,95208.85
2018-07-13T15:57:10.159Z,95211.00
2018-07-13T16:00:14.177Z,95211.53
2018-07-13T16:03:18.756Z,95216.33
2018-07-13T16:06:23.827Z,95212.36
2018-07-13T16:09:28.553Z,95205.88
2018-07-13T16:12:32.683Z,95210.59
2018-07-13T16:15:37.128Z,95210.27
2018-07-13T16:18:41.417Z,95214.02
2018-07-13T16:21:45.495Z,95210.20
2018-07-13T16:24:50.017Z,95199.37
2018-07-13T16:27:54.719Z,95201.66
2018-07-13T16:30:59.206Z,95197.52
2018-07-13T16:34:04.386Z,95198.97
2018-07-13T16:37:08.613Z,95195.12
2018-07-13T16:40:13.031Z,95187.55
2018-07-13T16:43:17.692Z,95185.19
2018-07-13T16:46:22.182Z,95193.85
2018-07-13T16:49:26.488Z,95184.03
2018-07-13T16:52:30.632Z,95186.84
2018-07-13T16:55:35.654Z,95177.69
2018-07-13T16:58:40.078Z,95175.88
2018-07-13T17:01:44.817Z,95178.66
2018-07-13T17:04:49.213Z,95175.84
2018-07-13T17:07:54.162Z,95175.33
2018-07-13T17:10:59.033Z,95170.66
2018-07-13T17:14:03.935Z,95168.56
2018-07-13T17:17:09.123Z,95161.66
2018-07-13T17:20:14.290Z,95159.00
2018-07-13T17:23:18.931Z,95173.38
2018-07-13T17:26:23.213Z,95173.80
2018-07-13T17:29:29.687Z,95168.68
2018-07-13T17:32:34.282Z,95174.53
2018-07-13T17:35:39.123Z,95167.16
2018-07-13T17:38:43.669Z,95163.12
2018-07-13T17:41:48.013Z,95172.27
2018-07-13T17:44:52.912Z,95165.33
2018-07-13T17:47:57.352Z,95171.17
2018-07-13T17:51:02.050Z,95170.12
2018-07-13T17:54:06.680Z,95165.55
2018-07-13T17:57:11.232Z,95172.06
2018-07-13T18:00:15.669Z,95176.19
2018-07-13T18:03:20.239Z,95176.52
2018-07-13T18:06:24.608Z,95170.36
2018-07-13T18:09:28.953Z,95172.96
2018-07-13T18:12:34.479Z,95173.53
2018-07-13T18:15:39.837Z,95183.70
2018-07-13T18:18:44.318Z,95179.64
2018-07-13T18:21:48.638Z,95180.41
2018-07-13T18:24:52.936Z,95183.42
2018-07-13T18:27:57.288Z,95184.68
2018-07-13T18:31:01.587Z,95183.00
2018-07-13T18:34:05.881Z,95180.69
2018-07-13T18:37:11.005Z,95185.77
2018-07-13T18:40:16.266Z,95187.62
2018-07-13T18:43:21.047Z,95183.42
2018-07-13T18:46:25.514Z,95189.08
2018-07-13T18:49:31.132Z,95191.07
2018-07-13T18:52:35.476Z,95190.17
2018-07-13T18:55:39.882Z,95192.95
2018-07-13T18:58:45.549Z,95190.87
2018-07-13T19:01:50.020Z,95200.39
2018-07-13T19:04:55.513Z,95204.88
2018-07-13T19:08:00.069Z,95208.80
2018-07-13T19:11:05.665Z,95206.93
2018-07-13T19:14:10.114Z,95211.78
2018-07-13T19:17:14.787Z,95211.80
2018-07-13T19:20:19.658Z,95220.52
2018-07-13T19:23:24.148Z,95220.91
2018-07-13T19:26:28.692Z,95227.30
2018-07-13T19:29:34.945Z,95222.85
2018-07-13T19:32:39.553Z,95229.23
2018-07-13T19:35:57.745Z,95234.02
2018-07-13T19:39:02.310Z,95246.38
2018-07-13T19:42:06.936Z,95248.90
2018-07-13T19:45:12.088Z,95249.45
2018-07-13T19:48:16.684Z,95253.46
2018-07-13T19:51:21.096Z,95250.20
2018-07-13T19:54:26.014Z,95252.28
2018-07-13T19:57:30.545Z,95253.61
2018-07-13T20:00:34.961Z,95257.44
2018-07-13T20:03:39.341Z,95258.16
2018-07-13T20:06:44.301Z,95264.52
2018-07-13T20:09:49.130Z,95264.82
2018-07-13T20:12:53.717Z,95269.59
2018-07-13T20:15:58.236Z,95264.54
2018-07-13T20:19:02.565Z,95267.76
2018-07-13T20:22:06.907Z,95270.81
2018-07-13T20:25:11.256Z,95272.86
2018-07-13T20:28:15.847Z,95268.35
2018-07-13T20:31:20.171Z,95274.86
2018-07-13T20:34:24.594Z,95271.56
2018-07-13T20:37:29.038Z,95273.41
2018-07-13T20:40:33.345Z,95269.06
2018-07-13T20:43:38.860Z,95272.84
2018-07-13T20:46:43.237Z,95271.95
2018-07-13T20:49:47.802Z,95273.09
2018-07-13T20:52:53.852Z,95270.34
2018-07-13T20:55:59.812Z,95272.18
2018-07-13T20:59:04.276Z,95278.41
2018-07-13T21:02:08.808Z,95277.00
2018-07-13T21:05:13.217Z,95280.02
2018-07-13T21:08:17.547Z,95278.91
2018-07-13T21:11:22.037Z,95280.05
2018-07-13T21:14:26.905Z,95279.40
2018-07-13T21:17:31.182Z,95282.42
2018-07-13T21:20:35.427Z,95283.47
2018-07-13T21:23:39.824Z,95284.52
2018-07-13T21:26:44.901Z,95283.53
2018-07-13T21:29:49.139Z,95282.16
2018-07-13T21:32:53.634Z,95278.48
2018-07-13T21:35:57.991Z,95280.91
2018-07-13T21:39:02.472Z,95279.47
2018-07-13T21:42:08.331Z,95282.02
2018-07-13T21:45:13.758Z,95282.80
2018-07-13T21:48:18.466Z,95286.96
2018-07-13T21:51:22.810Z,95281.08
2018-07-13T21:54:27.206Z,95285.88
2018-07-13T21:57:31.475Z,95284.33
2018-07-13T22:00:35.936Z,95288.98
2018-07-13T22:03:40.651Z,95279.98
2018-07-13T22:06:45.353Z,95281.43
2018-07-13T22:09:49.892Z,95284.70
2018-07-13T22:12:54.248Z,95292.36
2018-07-13T22:15:58.601Z,95295.78
2018-07-13T22:19:02.950Z,95299.98
2018-07-13T22:22:07.517Z,95299.10
2018-07-13T22:25:11.906Z,95294.14
2018-07-13T22:28:17.318Z,95303.71
2018-07-13T22:31:21.782Z,95304.80
2018-07-13T22:34:26.422Z,95309.16
2018-07-13T22:37:30.711Z,95313.91
2018-07-13T22:40:34.989Z,95308.20
2018-07-13T22:43:39.290Z,95307.56
2018-07-13T22:46:44.480Z,95302.38
2018-07-13T22:49:48.941Z,95303.80
2018-07-13T22:52:53.553Z,95301.55
2018-07-13T22:55:57.924Z,95298.36
2018-07-13T22:59:02.618Z,95300.05
2018-07-13T23:02:07.182Z,95303.67
2018-07-13T23:05:11.460Z,95304.16
2018-07-13T23:08:15.801Z,95307.27
2018-07-13T23:11:20.162Z,95300.94
2018-07-13T23:14:24.546Z,95303.53
2018-07-13T23:17:29.002Z,95298.39
2018-07-13T23:20:33.485Z,95301.02
2018-07-13T23:23:38.484Z,95297.00
2018-07-13T23:26:43.001Z,95295.70
2018-07-13T23:29:47.258Z,95295.86
2018-07-13T23:32:51.658Z,95300.14
2018-07-13T23:35:56.061Z,95298.31
2018-07-13T23:39:00.704Z,95293.95
2018-07-13T23:42:04.987Z,95291.00
2018-07-13T23:45:09.870Z,95293.94
2018-07-13T23:48:14.244Z,95296.28
2018-07-13T23:51:18.529Z,95298.47
2018-07-13T23:54:22.837Z,95295.81
2018-07-13T23:57:27.084Z,95293.17
